sensor_id;sensor_type;location;lat;lon;timestamp;temperature;humidity
26408;DHT22;14583;43.604;1.364;2023-01-23T00:00:54;0.50;99.90
26408;DHT22;14583;43.604;1.364;2023-01-23T00:03:20;0.40;99.90
26408;DHT22;14583;43.604;1.364;2023-01-23T00:05:56;0.50;99.90
26408;DHT22;14583;43.604;1.364;2023-01-23T00:08:21;0.40;99.90
26408;DHT22;14583;43.604;1.364;2023-01-23T00:10:47;0.40;99.90
26408;DHT22;14583;43.604;1.364;2023-01-23T00:13:13;0.50;99.90
26408;DHT22;14583;43.604;1.364;2023-01-23T00:15:39;0.50;99.90
26408;DHT22;14583;43.604;1.364;2023-01-23T00:18:04;0.40;99.90
26408;DHT22;14583;43.604;1.364;2023-01-23T00:20:30;0.50;99.90
26408;DHT22;14583;43.604;1.364;2023-01-23T00:22:56;0.50;99.90
26408;DHT22;14583;43.604;1.364;2023-01-23T00:25:21;0.50;99.90
26408;DHT22;14583;43.604;1.364;2023-01-23T00:27:47;0.60;99.90
26408;DHT22;14583;43.604;1.364;2023-01-23T00:30:13;0.60;99.90
26408;DHT22;14583;43.604;1.364;2023-01-23T00:32:40;0.50;99.90
26408;DHT22;14583;43.604;1.364;2023-01-23T00:35:06;0.50;99.90
26408;DHT22;14583;43.604;1.364;2023-01-23T00:37:32;0.50;99.90
26408;DHT22;14583;43.604;1.364;2023-01-23T00:39:57;0.50;99.90
26408;DHT22;14583;43.604;1.364;2023-01-23T00:42:23;0.50;99.90
26408;DHT22;14583;43.604;1.364;2023-01-23T00:44:48;0.40;99.90
26408;DHT22;14583;43.604;1.364;2023-01-23T00:47:14;0.40;99.90
26408;DHT22;14583;43.604;1.364;2023-01-23T00:49:40;0.50;99.90
26408;DHT22;14583;43.604;1.364;2023-01-23T00:52:05;0.60;99.90
26408;DHT22;14583;43.604;1.364;2023-01-23T00:54:31;0.60;99.90
26408;DHT22;14583;43.604;1.364;2023-01-23T00:56:57;0.60;99.90
26408;DHT22;14583;43.604;1.364;2023-01-23T00:59:22;0.50;99.90
26408;DHT22;14583;43.604;1.364;2023-01-23T01:01:48;0.50;99.90
26408;DHT22;14583;43.604;1.364;2023-01-23T01:04:15;0.50;99.90
26408;DHT22;14583;43.604;1.364;2023-01-23T01:06:40;0.50;99.90
26408;DHT22;14583;43.604;1.364;2023-01-23T01:09:06;0.50;99.90
26408;DHT22;14583;43.604;1.364;2023-01-23T01:11:32;0.50;99.90
26408;DHT22;14583;43.604;1.364;2023-01-23T01:13:57;0.60;99.90
26408;DHT22;14583;43.604;1.364;2023-01-23T01:16:23;0.60;99.90
26408;DHT22;14583;43.604;1.364;2023-01-23T01:18:49;0.50;99.90
26408;DHT22;14583;43.604;1.364;2023-01-23T01:21:15;0.40;99.90
26408;DHT22;14583;43.604;1.364;2023-01-23T01:23:42;0.40;99.90
26408;DHT22;14583;43.604;1.364;2023-01-23T01:26:08;0.50;99.90
26408;DHT22;14583;43.604;1.364;2023-01-23T01:28:35;0.50;99.90
26408;DHT22;14583;43.604;1.364;2023-01-23T01:31:05;0.50;99.90
26408;DHT22;14583;43.604;1.364;2023-01-23T01:33:32;0.50;99.90
26408;DHT22;14583;43.604;1.364;2023-01-23T01:35:59;0.40;99.90
26408;DHT22;14583;43.604;1.364;2023-01-23T01:38:25;0.40;99.90
26408;DHT22;14583;43.604;1.364;2023-01-23T01:40:51;0.50;99.90
26408;DHT22;14583;43.604;1.364;2023-01-23T01:43:23;0.30;99.90
26408;DHT22;14583;43.604;1.364;2023-01-23T01:46:11;0.40;99.90
26408;DHT22;14583;43.604;1.364;2023-01-23T01:48:45;0.50;99.90
26408;DHT22;14583;43.604;1.364;2023-01-23T01:51:21;0.50;99.90
26408;DHT22;14583;43.604;1.364;2023-01-23T01:53:55;0.60;99.90
26408;DHT22;14583;43.604;1.364;2023-01-23T01:56:22;0.40;99.90
26408;DHT22;14583;43.604;1.364;2023-01-23T01:58:51;0.40;99.90
26408;DHT22;14583;43.604;1.364;2023-01-23T02:01:18;0.40;99.90
26408;DHT22;14583;43.604;1.364;2023-01-23T02:03:45;0.40;99.90
26408;DHT22;14583;43.604;1.364;2023-01-23T02:06:11;0.20;99.90
26408;DHT22;14583;43.604;1.364;2023-01-23T02:11:23;0.40;99.90
26408;DHT22;14583;43.604;1.364;2023-01-23T02:13:48;0.50;99.90
26408;DHT22;14583;43.604;1.364;2023-01-23T02:16:18;0.60;99.90
26408;DHT22;14583;43.604;1.364;2023-01-23T02:18:48;0.30;99.90
26408;DHT22;14583;43.604;1.364;2023-01-23T02:21:16;0.40;99.90
26408;DHT22;14583;43.604;1.364;2023-01-23T02:23:52;0.40;99.90
26408;DHT22;14583;43.604;1.364;2023-01-23T02:26:24;0.30;99.90
26408;DHT22;14583;43.604;1.364;2023-01-23T02:28:52;0.30;99.90
26408;DHT22;14583;43.604;1.364;2023-01-23T02:31:20;0.40;99.90
26408;DHT22;14583;43.604;1.364;2023-01-23T02:33:50;0.40;99.90
26408;DHT22;14583;43.604;1.364;2023-01-23T02:36:17;0.40;99.90
26408;DHT22;14583;43.604;1.364;2023-01-23T02:39:00;0.40;99.90
26408;DHT22;14583;43.604;1.364;2023-01-23T02:41:29;0.30;99.90
26408;DHT22;14583;43.604;1.364;2023-01-23T02:43:58;0.30;99.90
26408;DHT22;14583;43.604;1.364;2023-01-23T02:46:25;0.20;99.90
26408;DHT22;14583;43.604;1.364;2023-01-23T02:48:51;0.30;99.90
26408;DHT22;14583;43.604;1.364;2023-01-23T02:51:17;0.30;99.90
26408;DHT22;14583;43.604;1.364;2023-01-23T02:53:43;0.30;99.90
26408;DHT22;14583;43.604;1.364;2023-01-23T02:56:09;0.40;99.90
26408;DHT22;14583;43.604;1.364;2023-01-23T02:58:35;0.30;99.90
26408;DHT22;14583;43.604;1.364;2023-01-23T03:01:19;0.40;99.90
26408;DHT22;14583;43.604;1.364;2023-01-23T03:03:45;0.30;99.90
26408;DHT22;14583;43.604;1.364;2023-01-23T03:06:11;0.40;99.90
26408;DHT22;14583;43.604;1.364;2023-01-23T03:08:37;0.40;99.90
26408;DHT22;14583;43.604;1.364;2023-01-23T03:11:13;0.30;99.90
26408;DHT22;14583;43.604;1.364;2023-01-23T03:13:39;0.20;99.90
26408;DHT22;14583;43.604;1.364;2023-01-23T03:16:05;0.40;99.90
26408;DHT22;14583;43.604;1.364;2023-01-23T03:18:31;0.30;99.90
26408;DHT22;14583;43.604;1.364;2023-01-23T03:21:05;0.40;99.90
26408;DHT22;14583;43.604;1.364;2023-01-23T03:23:31;0.40;99.90
26408;DHT22;14583;43.604;1.364;2023-01-23T03:25:57;0.30;99.90
26408;DHT22;14583;43.604;1.364;2023-01-23T03:28:26;0.20;99.90
26408;DHT22;14583;43.604;1.364;2023-01-23T03:31:11;0.20;99.90
26408;DHT22;14583;43.604;1.364;2023-01-23T03:33:38;0.20;99.90
26408;DHT22;14583;43.604;1.364;2023-01-23T03:36:07;0.30;99.90
26408;DHT22;14583;43.604;1.364;2023-01-23T03:38:33;0.20;99.90
26408;DHT22;14583;43.604;1.364;2023-01-23T03:40:58;0.20;99.90
26408;DHT22;14583;43.604;1.364;2023-01-23T03:43:42;0.30;99.90
26408;DHT22;14583;43.604;1.364;2023-01-23T03:46:08;0.30;99.90
26408;DHT22;14583;43.604;1.364;2023-01-23T03:48:34;0.30;99.90
26408;DHT22;14583;43.604;1.364;2023-01-23T03:50:59;0.30;99.90
26408;DHT22;14583;43.604;1.364;2023-01-23T03:53:25;0.20;99.90
26408;DHT22;14583;43.604;1.364;2023-01-23T03:55:51;0.30;99.90
26408;DHT22;14583;43.604;1.364;2023-01-23T03:58:16;0.40;99.90
26408;DHT22;14583;43.604;1.364;2023-01-23T04:00:42;0.40;99.90
26408;DHT22;14583;43.604;1.364;2023-01-23T04:03:08;0.40;99.90
26408;DHT22;14583;43.604;1.364;2023-01-23T04:05:33;0.40;99.90
26408;DHT22;14583;43.604;1.364;2023-01-23T04:07:59;0.40;99.90
26408;DHT22;14583;43.604;1.364;2023-01-23T04:10:26;0.40;99.90
26408;DHT22;14583;43.604;1.364;2023-01-23T04:12:52;0.40;99.90
26408;DHT22;14583;43.604;1.364;2023-01-23T04:15:18;0.30;99.90
26408;DHT22;14583;43.604;1.364;2023-01-23T04:17:44;0.40;99.90
26408;DHT22;14583;43.604;1.364;2023-01-23T04:20:11;0.40;99.90
26408;DHT22;14583;43.604;1.364;2023-01-23T04:22:37;0.40;99.90
26408;DHT22;14583;43.604;1.364;2023-01-23T04:25:03;0.40;99.90
26408;DHT22;14583;43.604;1.364;2023-01-23T04:27:30;0.40;99.90
26408;DHT22;14583;43.604;1.364;2023-01-23T04:29:56;0.30;99.90
26408;DHT22;14583;43.604;1.364;2023-01-23T04:32:23;0.40;99.90
26408;DHT22;14583;43.604;1.364;2023-01-23T04:34:48;0.40;99.90
26408;DHT22;14583;43.604;1.364;2023-01-23T04:37:15;0.40;99.90
26408;DHT22;14583;43.604;1.364;2023-01-23T04:39:40;0.30;99.90
26408;DHT22;14583;43.604;1.364;2023-01-23T04:42:06;0.20;99.90
26408;DHT22;14583;43.604;1.364;2023-01-23T04:44:32;0.20;99.90
26408;DHT22;14583;43.604;1.364;2023-01-23T04:46:58;0.30;99.90
26408;DHT22;14583;43.604;1.364;2023-01-23T04:49:24;0.20;99.90
26408;DHT22;14583;43.604;1.364;2023-01-23T04:51:51;0.20;99.90
26408;DHT22;14583;43.604;1.364;2023-01-23T04:54:18;0.20;99.90
26408;DHT22;14583;43.604;1.364;2023-01-23T04:56:45;0.20;99.90
26408;DHT22;14583;43.604;1.364;2023-01-23T04:59:11;0.20;99.90
26408;DHT22;14583;43.604;1.364;2023-01-23T05:01:37;0.20;99.90
26408;DHT22;14583;43.604;1.364;2023-01-23T05:04:03;0.20;99.90
26408;DHT22;14583;43.604;1.364;2023-01-23T05:06:29;0.20;99.90
26408;DHT22;14583;43.604;1.364;2023-01-23T05:08:55;0.20;99.90
26408;DHT22;14583;43.604;1.364;2023-01-23T05:11:21;0.30;99.90
26408;DHT22;14583;43.604;1.364;2023-01-23T05:13:46;0.20;99.90
26408;DHT22;14583;43.604;1.364;2023-01-23T05:16:12;0.10;99.90
26408;DHT22;14583;43.604;1.364;2023-01-23T05:18:38;0.20;99.90
26408;DHT22;14583;43.604;1.364;2023-01-23T05:21:04;0.20;99.90
26408;DHT22;14583;43.604;1.364;2023-01-23T05:23:29;0.10;99.90
26408;DHT22;14583;43.604;1.364;2023-01-23T05:25:55;0.10;99.90
26408;DHT22;14583;43.604;1.364;2023-01-23T05:28:21;0.20;99.90
26408;DHT22;14583;43.604;1.364;2023-01-23T05:30:47;0.10;99.90
26408;DHT22;14583;43.604;1.364;2023-01-23T05:33:12;0.30;99.90
26408;DHT22;14583;43.604;1.364;2023-01-23T05:35:38;0.30;99.90
26408;DHT22;14583;43.604;1.364;2023-01-23T05:38:04;0.30;99.90
26408;DHT22;14583;43.604;1.364;2023-01-23T05:40:29;0.40;99.90
26408;DHT22;14583;43.604;1.364;2023-01-23T05:42:55;0.20;99.90
26408;DHT22;14583;43.604;1.364;2023-01-23T05:45:21;0.20;99.90
26408;DHT22;14583;43.604;1.364;2023-01-23T05:47:47;0.20;99.90
26408;DHT22;14583;43.604;1.364;2023-01-23T05:50:16;0.10;99.90
26408;DHT22;14583;43.604;1.364;2023-01-23T05:52:43;0.10;99.90
26408;DHT22;14583;43.604;1.364;2023-01-23T05:55:09;0.10;99.90
26408;DHT22;14583;43.604;1.364;2023-01-23T05:57:35;0.10;99.90
26408;DHT22;14583;43.604;1.364;2023-01-23T06:00:01;0.20;99.90
26408;DHT22;14583;43.604;1.364;2023-01-23T06:02:27;0.10;99.90
26408;DHT22;14583;43.604;1.364;2023-01-23T06:04:52;0.00;99.90
26408;DHT22;14583;43.604;1.364;2023-01-23T06:07:19;0.00;99.90
26408;DHT22;14583;43.604;1.364;2023-01-23T06:09:45;0.10;99.90
26408;DHT22;14583;43.604;1.364;2023-01-23T06:12:11;0.10;99.90
26408;DHT22;14583;43.604;1.364;2023-01-23T06:14:37;0.10;99.90
26408;DHT22;14583;43.604;1.364;2023-01-23T06:17:03;-0.10;99.90
26408;DHT22;14583;43.604;1.364;2023-01-23T06:19:29;-0.10;99.90
26408;DHT22;14583;43.604;1.364;2023-01-23T06:21:55;0.10;99.90
26408;DHT22;14583;43.604;1.364;2023-01-23T06:24:21;0.10;99.90
26408;DHT22;14583;43.604;1.364;2023-01-23T06:26:46;0.20;99.90
26408;DHT22;14583;43.604;1.364;2023-01-23T06:29:12;0.20;99.90
26408;DHT22;14583;43.604;1.364;2023-01-23T06:31:38;0.10;99.90
26408;DHT22;14583;43.604;1.364;2023-01-23T06:34:03;0.10;99.90
26408;DHT22;14583;43.604;1.364;2023-01-23T06:36:29;0.10;99.90
26408;DHT22;14583;43.604;1.364;2023-01-23T06:38:55;0.00;99.90
26408;DHT22;14583;43.604;1.364;2023-01-23T06:41:20;0.00;99.90
26408;DHT22;14583;43.604;1.364;2023-01-23T06:43:46;0.00;99.90
26408;DHT22;14583;43.604;1.364;2023-01-23T06:46:12;0.10;99.90
26408;DHT22;14583;43.604;1.364;2023-01-23T06:48:37;0.10;99.90
26408;DHT22;14583;43.604;1.364;2023-01-23T06:51:04;0.10;99.90
26408;DHT22;14583;43.604;1.364;2023-01-23T06:53:31;0.20;99.90
26408;DHT22;14583;43.604;1.364;2023-01-23T06:56:02;0.30;99.90
26408;DHT22;14583;43.604;1.364;2023-01-23T06:58:28;0.30;99.90
26408;DHT22;14583;43.604;1.364;2023-01-23T07:00:54;0.30;99.90
26408;DHT22;14583;43.604;1.364;2023-01-23T07:03:20;0.30;99.90
26408;DHT22;14583;43.604;1.364;2023-01-23T07:05:45;0.30;99.90
26408;DHT22;14583;43.604;1.364;2023-01-23T07:08:11;0.20;99.90
26408;DHT22;14583;43.604;1.364;2023-01-23T07:10:38;0.20;99.90
26408;DHT22;14583;43.604;1.364;2023-01-23T07:13:05;0.20;99.90
26408;DHT22;14583;43.604;1.364;2023-01-23T07:15:31;0.30;99.90
26408;DHT22;14583;43.604;1.364;2023-01-23T07:17:57;0.20;99.90
26408;DHT22;14583;43.604;1.364;2023-01-23T07:20:23;0.30;99.90
26408;DHT22;14583;43.604;1.364;2023-01-23T07:22:52;0.30;99.90
26408;DHT22;14583;43.604;1.364;2023-01-23T07:25:18;0.30;99.90
26408;DHT22;14583;43.604;1.364;2023-01-23T07:27:43;0.20;99.90
26408;DHT22;14583;43.604;1.364;2023-01-23T07:30:10;0.20;99.90
26408;DHT22;14583;43.604;1.364;2023-01-23T07:32:35;0.20;99.90
26408;DHT22;14583;43.604;1.364;2023-01-23T07:35:01;0.30;99.90
26408;DHT22;14583;43.604;1.364;2023-01-23T07:37:27;0.30;99.90
26408;DHT22;14583;43.604;1.364;2023-01-23T07:39:52;0.30;99.90
26408;DHT22;14583;43.604;1.364;2023-01-23T07:42:18;0.20;99.90
26408;DHT22;14583;43.604;1.364;2023-01-23T07:44:44;0.20;99.90
26408;DHT22;14583;43.604;1.364;2023-01-23T07:47:09;0.20;99.90
26408;DHT22;14583;43.604;1.364;2023-01-23T07:49:35;0.30;99.90
26408;DHT22;14583;43.604;1.364;2023-01-23T07:52:01;0.30;99.90
26408;DHT22;14583;43.604;1.364;2023-01-23T07:54:26;0.40;99.90
26408;DHT22;14583;43.604;1.364;2023-01-23T07:56:52;0.40;99.90
26408;DHT22;14583;43.604;1.364;2023-01-23T07:59:18;0.40;99.90
26408;DHT22;14583;43.604;1.364;2023-01-23T08:01:43;0.40;99.90
26408;DHT22;14583;43.604;1.364;2023-01-23T08:04:09;0.40;99.90
26408;DHT22;14583;43.604;1.364;2023-01-23T08:06:35;0.40;99.90
26408;DHT22;14583;43.604;1.364;2023-01-23T08:09:01;0.40;99.90
26408;DHT22;14583;43.604;1.364;2023-01-23T08:11:27;0.40;99.90
26408;DHT22;14583;43.604;1.364;2023-01-23T08:13:53;0.40;99.90
26408;DHT22;14583;43.604;1.364;2023-01-23T08:16:18;0.40;99.90
26408;DHT22;14583;43.604;1.364;2023-01-23T08:18:44;0.30;99.90
26408;DHT22;14583;43.604;1.364;2023-01-23T08:21:10;0.30;99.90
26408;DHT22;14583;43.604;1.364;2023-01-23T08:23:36;0.30;99.90
26408;DHT22;14583;43.604;1.364;2023-01-23T08:26:04;0.30;99.90
26408;DHT22;14583;43.604;1.364;2023-01-23T08:28:30;0.20;99.90
26408;DHT22;14583;43.604;1.364;2023-01-23T08:31:00;0.20;99.90
26408;DHT22;14583;43.604;1.364;2023-01-23T08:33:25;0.10;99.90
26408;DHT22;14583;43.604;1.364;2023-01-23T08:35:53;0.20;99.90
26408;DHT22;14583;43.604;1.364;2023-01-23T08:38:20;0.20;99.90
26408;DHT22;14583;43.604;1.364;2023-01-23T08:40:47;0.30;99.90
26408;DHT22;14583;43.604;1.364;2023-01-23T08:43:13;0.30;99.90
26408;DHT22;14583;43.604;1.364;2023-01-23T08:45:40;0.40;99.90
26408;DHT22;14583;43.604;1.364;2023-01-23T08:48:06;0.40;99.90
26408;DHT22;14583;43.604;1.364;2023-01-23T08:50:32;0.40;99.90
26408;DHT22;14583;43.604;1.364;2023-01-23T08:52:58;0.40;99.90
26408;DHT22;14583;43.604;1.364;2023-01-23T08:55:24;0.30;99.90
26408;DHT22;14583;43.604;1.364;2023-01-23T08:57:49;0.30;99.90
26408;DHT22;14583;43.604;1.364;2023-01-23T09:00:15;0.20;99.90
26408;DHT22;14583;43.604;1.364;2023-01-23T09:02:41;0.30;99.90
26408;DHT22;14583;43.604;1.364;2023-01-23T09:05:07;0.30;99.90
26408;DHT22;14583;43.604;1.364;2023-01-23T09:07:33;0.40;99.90
26408;DHT22;14583;43.604;1.364;2023-01-23T09:10:01;0.40;99.90
26408;DHT22;14583;43.604;1.364;2023-01-23T09:12:27;0.50;99.90
26408;DHT22;14583;43.604;1.364;2023-01-23T09:14:53;0.50;99.90
26408;DHT22;14583;43.604;1.364;2023-01-23T09:17:19;0.40;99.90
26408;DHT22;14583;43.604;1.364;2023-01-23T09:19:44;0.50;99.90
26408;DHT22;14583;43.604;1.364;2023-01-23T09:22:10;0.50;99.90
26408;DHT22;14583;43.604;1.364;2023-01-23T09:24:35;0.60;99.90
26408;DHT22;14583;43.604;1.364;2023-01-23T09:27:01;0.50;99.90
26408;DHT22;14583;43.604;1.364;2023-01-23T09:29:27;0.50;99.90
26408;DHT22;14583;43.604;1.364;2023-01-23T09:31:52;0.60;99.90
26408;DHT22;14583;43.604;1.364;2023-01-23T09:34:18;0.60;99.90
26408;DHT22;14583;43.604;1.364;2023-01-23T09:36:44;0.60;99.90
26408;DHT22;14583;43.604;1.364;2023-01-23T09:39:10;0.50;99.90
26408;DHT22;14583;43.604;1.364;2023-01-23T09:41:37;0.50;99.90
26408;DHT22;14583;43.604;1.364;2023-01-23T09:44:25;0.50;99.90
26408;DHT22;14583;43.604;1.364;2023-01-23T09:46:58;0.40;99.90
26408;DHT22;14583;43.604;1.364;2023-01-23T09:52:20;0.70;99.90
26408;DHT22;14583;43.604;1.364;2023-01-23T09:57:38;0.60;99.90
26408;DHT22;14583;43.604;1.364;2023-01-23T10:00:18;0.60;99.90
26408;DHT22;14583;43.604;1.364;2023-01-23T10:02:45;0.50;99.90
26408;DHT22;14583;43.604;1.364;2023-01-23T10:05:16;0.40;99.90
26408;DHT22;14583;43.604;1.364;2023-01-23T10:10:55;0.40;99.90
26408;DHT22;14583;43.604;1.364;2023-01-23T10:21:59;0.60;99.90
26408;DHT22;14583;43.604;1.364;2023-01-23T10:24:43;0.50;99.90
26408;DHT22;14583;43.604;1.364;2023-01-23T10:27:41;0.50;99.90
26408;DHT22;14583;43.604;1.364;2023-01-23T10:32:55;0.60;99.90
26408;DHT22;14583;43.604;1.364;2023-01-23T10:35:55;0.60;99.90
26408;DHT22;14583;43.604;1.364;2023-01-23T10:38:32;0.60;99.90
26408;DHT22;14583;43.604;1.364;2023-01-23T10:40:59;0.60;99.90
26408;DHT22;14583;43.604;1.364;2023-01-23T10:43:46;0.60;99.90
26408;DHT22;14583;43.604;1.364;2023-01-23T10:46:15;0.60;99.90
26408;DHT22;14583;43.604;1.364;2023-01-23T10:48:44;0.60;99.90
26408;DHT22;14583;43.604;1.364;2023-01-23T10:51:30;0.60;99.90
26408;DHT22;14583;43.604;1.364;2023-01-23T10:56:57;0.70;99.90
26408;DHT22;14583;43.604;1.364;2023-01-23T11:02:18;0.50;99.90
26408;DHT22;14583;43.604;1.364;2023-01-23T11:04:46;0.50;99.90
26408;DHT22;14583;43.604;1.364;2023-01-23T11:12:21;0.60;99.90
26408;DHT22;14583;43.604;1.364;2023-01-23T11:14:47;0.60;99.90
26408;DHT22;14583;43.604;1.364;2023-01-23T11:17:21;0.60;99.90
26408;DHT22;14583;43.604;1.364;2023-01-23T11:19:52;0.70;99.90
26408;DHT22;14583;43.604;1.364;2023-01-23T11:22:38;0.70;99.90
26408;DHT22;14583;43.604;1.364;2023-01-23T11:25:34;0.70;99.90
26408;DHT22;14583;43.604;1.364;2023-01-23T11:28:11;0.70;99.90
26408;DHT22;14583;43.604;1.364;2023-01-23T11:31:04;0.70;99.90
26408;DHT22;14583;43.604;1.364;2023-01-23T11:33:56;0.70;99.90
26408;DHT22;14583;43.604;1.364;2023-01-23T11:36:42;0.80;99.90
26408;DHT22;14583;43.604;1.364;2023-01-23T11:39:34;0.80;99.90
26408;DHT22;14583;43.604;1.364;2023-01-23T11:42:02;0.80;99.90
26408;DHT22;14583;43.604;1.364;2023-01-23T11:44:29;0.80;99.90
26408;DHT22;14583;43.604;1.364;2023-01-23T12:01:15;0.90;99.90
26408;DHT22;14583;43.604;1.364;2023-01-23T12:04:27;0.80;99.90
26408;DHT22;14583;43.604;1.364;2023-01-23T12:10:53;0.80;99.90
26408;DHT22;14583;43.604;1.364;2023-01-23T12:21:45;0.80;99.90
26408;DHT22;14583;43.604;1.364;2023-01-23T12:32:34;0.60;99.90
26408;DHT22;14583;43.604;1.364;2023-01-23T12:40:48;0.80;99.90
26408;DHT22;14583;43.604;1.364;2023-01-23T12:45:56;0.80;99.90
26408;DHT22;14583;43.604;1.364;2023-01-23T12:48:45;0.80;99.90
26408;DHT22;14583;43.604;1.364;2023-01-23T12:53:44;0.90;99.90
26408;DHT22;14583;43.604;1.364;2023-01-23T12:56:16;0.90;99.90
26408;DHT22;14583;43.604;1.364;2023-01-23T13:04:22;0.90;99.90
26408;DHT22;14583;43.604;1.364;2023-01-23T13:14:43;0.80;99.90
26408;DHT22;14583;43.604;1.364;2023-01-23T13:17:28;0.80;99.90
26408;DHT22;14583;43.604;1.364;2023-01-23T13:23:27;1.00;99.90
26408;DHT22;14583;43.604;1.364;2023-01-23T13:26:23;0.90;99.90
26408;DHT22;14583;43.604;1.364;2023-01-23T13:28:51;0.90;99.90
26408;DHT22;14583;43.604;1.364;2023-01-23T13:31:33;0.90;99.90
26408;DHT22;14583;43.604;1.364;2023-01-23T13:34:00;0.90;99.90
26408;DHT22;14583;43.604;1.364;2023-01-23T13:36:34;0.90;99.90
26408;DHT22;14583;43.604;1.364;2023-01-23T13:41:37;1.00;99.90
26408;DHT22;14583;43.604;1.364;2023-01-23T13:44:20;1.10;99.90
26408;DHT22;14583;43.604;1.364;2023-01-23T13:47:14;1.10;99.90
26408;DHT22;14583;43.604;1.364;2023-01-23T13:50:16;1.10;99.90
26408;DHT22;14583;43.604;1.364;2023-01-23T13:52:51;1.00;99.90
26408;DHT22;14583;43.604;1.364;2023-01-23T13:55:41;1.10;99.90
26408;DHT22;14583;43.604;1.364;2023-01-23T13:58:28;1.10;99.90
26408;DHT22;14583;43.604;1.364;2023-01-23T14:03:53;1.00;99.90
26408;DHT22;14583;43.604;1.364;2023-01-23T14:06:39;1.00;99.90
26408;DHT22;14583;43.604;1.364;2023-01-23T14:09:23;1.00;99.90
26408;DHT22;14583;43.604;1.364;2023-01-23T14:12:00;1.00;99.90
26408;DHT22;14583;43.604;1.364;2023-01-23T14:14:34;1.00;99.90
26408;DHT22;14583;43.604;1.364;2023-01-23T14:17:23;1.00;99.90
26408;DHT22;14583;43.604;1.364;2023-01-23T14:22:18;1.00;99.90
26408;DHT22;14583;43.604;1.364;2023-01-23T14:24:46;1.10;99.90
26408;DHT22;14583;43.604;1.364;2023-01-23T14:30:00;1.10;99.90
26408;DHT22;14583;43.604;1.364;2023-01-23T14:32:31;1.10;99.90
26408;DHT22;14583;43.604;1.364;2023-01-23T14:34:57;1.00;99.90
26408;DHT22;14583;43.604;1.364;2023-01-23T14:37:24;1.10;99.90
26408;DHT22;14583;43.604;1.364;2023-01-23T14:39:50;1.10;99.90
26408;DHT22;14583;43.604;1.364;2023-01-23T14:42:25;1.00;99.90
26408;DHT22;14583;43.604;1.364;2023-01-23T14:44:53;1.00;99.90
26408;DHT22;14583;43.604;1.364;2023-01-23T14:47:43;1.00;99.90
26408;DHT22;14583;43.604;1.364;2023-01-23T14:50:15;1.10;99.90
26408;DHT22;14583;43.604;1.364;2023-01-23T14:52:42;1.10;99.90
26408;DHT22;14583;43.604;1.364;2023-01-23T14:55:22;1.10;99.90
26408;DHT22;14583;43.604;1.364;2023-01-23T14:57:52;1.10;99.90
26408;DHT22;14583;43.604;1.364;2023-01-23T15:00:20;1.10;99.90
26408;DHT22;14583;43.604;1.364;2023-01-23T15:02:47;1.00;99.90
26408;DHT22;14583;43.604;1.364;2023-01-23T15:05:17;1.10;99.90
26408;DHT22;14583;43.604;1.364;2023-01-23T15:07:51;1.00;99.90
26408;DHT22;14583;43.604;1.364;2023-01-23T15:10:31;1.00;99.90
26408;DHT22;14583;43.604;1.364;2023-01-23T15:13:00;1.00;99.90
26408;DHT22;14583;43.604;1.364;2023-01-23T15:15:31;1.00;99.90
26408;DHT22;14583;43.604;1.364;2023-01-23T15:17:58;1.00;99.90
26408;DHT22;14583;43.604;1.364;2023-01-23T15:20:36;1.10;99.90
26408;DHT22;14583;43.604;1.364;2023-01-23T15:25:43;1.00;99.90
26408;DHT22;14583;43.604;1.364;2023-01-23T15:28:28;1.10;99.90
26408;DHT22;14583;43.604;1.364;2023-01-23T15:30:54;1.10;99.90
26408;DHT22;14583;43.604;1.364;2023-01-23T15:33:28;1.10;99.90
26408;DHT22;14583;43.604;1.364;2023-01-23T15:36:06;1.20;99.90
26408;DHT22;14583;43.604;1.364;2023-01-23T15:38:33;1.10;99.90
26408;DHT22;14583;43.604;1.364;2023-01-23T15:40:59;1.10;99.90
26408;DHT22;14583;43.604;1.364;2023-01-23T15:43:25;1.00;99.90
26408;DHT22;14583;43.604;1.364;2023-01-23T15:45:51;1.10;99.90
26408;DHT22;14583;43.604;1.364;2023-01-23T15:48:18;1.10;99.90
26408;DHT22;14583;43.604;1.364;2023-01-23T15:50:43;1.10;99.90
26408;DHT22;14583;43.604;1.364;2023-01-23T15:53:12;1.10;99.90
26408;DHT22;14583;43.604;1.364;2023-01-23T15:55:38;1.10;99.90
26408;DHT22;14583;43.604;1.364;2023-01-23T15:58:04;1.10;99.90
26408;DHT22;14583;43.604;1.364;2023-01-23T16:00:30;1.10;99.90
26408;DHT22;14583;43.604;1.364;2023-01-23T16:02:57;1.00;99.90
26408;DHT22;14583;43.604;1.364;2023-01-23T16:05:29;1.00;99.90
26408;DHT22;14583;43.604;1.364;2023-01-23T16:07:56;1.00;99.90
26408;DHT22;14583;43.604;1.364;2023-01-23T16:10:25;1.00;99.90
26408;DHT22;14583;43.604;1.364;2023-01-23T16:12:52;1.00;99.90
26408;DHT22;14583;43.604;1.364;2023-01-23T16:15:27;0.90;99.90
26408;DHT22;14583;43.604;1.364;2023-01-23T16:17:54;0.90;99.90
26408;DHT22;14583;43.604;1.364;2023-01-23T16:20:28;1.00;99.90
26408;DHT22;14583;43.604;1.364;2023-01-23T16:23:00;1.00;99.90
26408;DHT22;14583;43.604;1.364;2023-01-23T16:25:27;0.90;99.90
26408;DHT22;14583;43.604;1.364;2023-01-23T16:27:53;0.90;99.90
26408;DHT22;14583;43.604;1.364;2023-01-23T16:30:21;0.90;99.90
26408;DHT22;14583;43.604;1.364;2023-01-23T16:32:47;1.00;99.90
26408;DHT22;14583;43.604;1.364;2023-01-23T16:35:14;1.00;99.90
26408;DHT22;14583;43.604;1.364;2023-01-23T16:37:42;0.90;99.90
26408;DHT22;14583;43.604;1.364;2023-01-23T16:40:22;0.90;99.90
26408;DHT22;14583;43.604;1.364;2023-01-23T16:42:50;0.90;99.90
26408;DHT22;14583;43.604;1.364;2023-01-23T16:45:21;1.00;99.90
26408;DHT22;14583;43.604;1.364;2023-01-23T16:47:47;0.90;99.90
26408;DHT22;14583;43.604;1.364;2023-01-23T16:50:19;0.90;99.90
26408;DHT22;14583;43.604;1.364;2023-01-23T16:53:00;1.00;99.90
26408;DHT22;14583;43.604;1.364;2023-01-23T16:55:32;1.00;99.90
26408;DHT22;14583;43.604;1.364;2023-01-23T16:57:59;1.00;99.90
26408;DHT22;14583;43.604;1.364;2023-01-23T17:00:27;1.00;99.90
26408;DHT22;14583;43.604;1.364;2023-01-23T17:02:55;1.00;99.90
26408;DHT22;14583;43.604;1.364;2023-01-23T17:05:23;0.90;99.90
26408;DHT22;14583;43.604;1.364;2023-01-23T17:07:49;0.90;99.90
26408;DHT22;14583;43.604;1.364;2023-01-23T17:10:17;0.90;99.90
26408;DHT22;14583;43.604;1.364;2023-01-23T17:12:50;0.90;99.90
26408;DHT22;14583;43.604;1.364;2023-01-23T17:15:25;0.90;99.90
26408;DHT22;14583;43.604;1.364;2023-01-23T17:17:53;0.90;99.90
26408;DHT22;14583;43.604;1.364;2023-01-23T17:20:20;0.90;99.90
26408;DHT22;14583;43.604;1.364;2023-01-23T17:22:46;0.80;99.90
26408;DHT22;14583;43.604;1.364;2023-01-23T17:25:23;0.80;99.90
26408;DHT22;14583;43.604;1.364;2023-01-23T17:27:50;0.80;99.90
26408;DHT22;14583;43.604;1.364;2023-01-23T17:30:22;0.90;99.90
26408;DHT22;14583;43.604;1.364;2023-01-23T17:32:50;0.90;99.90
26408;DHT22;14583;43.604;1.364;2023-01-23T17:35:32;0.80;99.90
26408;DHT22;14583;43.604;1.364;2023-01-23T17:37:59;0.90;99.90
26408;DHT22;14583;43.604;1.364;2023-01-23T17:40:25;0.90;99.90
26408;DHT22;14583;43.604;1.364;2023-01-23T17:42:50;0.90;99.90
26408;DHT22;14583;43.604;1.364;2023-01-23T17:45:20;0.90;99.90
26408;DHT22;14583;43.604;1.364;2023-01-23T17:47:48;0.90;99.90